sensor_id;sensor_type;location;lat;lon;timestamp;P1;durP1;ratioP1;P2;durP2;ratioP2
77602;SDS011;66771;52.434;17.056;2023-02-05T00:01:23;8.40;;;3.80;;
77602;SDS011;66771;52.434;17.056;2023-02-05T00:03:49;8.80;;;4.20;;
77602;SDS011;66771;52.434;17.056;2023-02-05T00:06:16;8.80;;;4.90;;
77602;SDS011;66771;52.434;17.056;2023-02-05T00:08:43;8.70;;;4.00;;
77602;SDS011;66771;52.434;17.056;2023-02-05T00:11:10;9.40;;;4.60;;
77602;SDS011;66771;52.434;17.056;2023-02-05T00:13:38;8.50;;;4.40;;
77602;SDS011;66771;52.434;17.056;2023-02-05T00:16:07;8.00;;;4.20;;
77602;SDS011;66771;52.434;17.056;2023-02-05T00:18:38;5.10;;;3.60;;
77602;SDS011;66771;52.434;17.056;2023-02-05T00:21:05;6.90;;;3.60;;
77602;SDS011;66771;52.434;17.056;2023-02-05T00:23:32;6.90;;;3.90;;
77602;SDS011;66771;52.434;17.056;2023-02-05T00:26:00;11.80;;;4.60;;
77602;SDS011;66771;52.434;17.056;2023-02-05T00:28:29;11.70;;;4.80;;
77602;SDS011;66771;52.434;17.056;2023-02-05T00:31:05;10.30;;;5.00;;
77602;SDS011;66771;52.434;17.056;2023-02-05T00:33:40;8.90;;;4.70;;
77602;SDS011;66771;52.434;17.056;2023-02-05T00:36:07;9.60;;;5.20;;
77602;SDS011;66771;52.434;17.056;2023-02-05T00:38:34;9.00;;;5.00;;
77602;SDS011;66771;52.434;17.056;2023-02-05T00:41:02;8.90;;;4.70;;
77602;SDS011;66771;52.434;17.056;2023-02-05T00:43:29;12.40;;;4.50;;
77602;SDS011;66771;52.434;17.056;2023-02-05T00:45:56;10.20;;;4.70;;
77602;SDS011;66771;52.434;17.056;2023-02-05T00:48:23;13.90;;;5.20;;
77602;SDS011;66771;52.434;17.056;2023-02-05T00:50:50;11.90;;;4.70;;
77602;SDS011;66771;52.434;17.056;2023-02-05T00:53:18;10.00;;;4.40;;
77602;SDS011;66771;52.434;17.056;2023-02-05T00:55:46;9.40;;;4.10;;
77602;SDS011;66771;52.434;17.056;2023-02-05T00:58:13;8.70;;;4.20;;
77602;SDS011;66771;52.434;17.056;2023-02-05T01:00:41;10.90;;;5.30;;
77602;SDS011;66771;52.434;17.056;2023-02-05T01:03:07;11.50;;;4.90;;
77602;SDS011;66771;52.434;17.056;2023-02-05T01:05:34;11.00;;;5.00;;
77602;SDS011;66771;52.434;17.056;2023-02-05T01:08:02;9.30;;;5.30;;
77602;SDS011;66771;52.434;17.056;2023-02-05T01:10:31;16.30;;;6.50;;
77602;SDS011;66771;52.434;17.056;2023-02-05T01:12:58;9.90;;;5.20;;
77602;SDS011;66771;52.434;17.056;2023-02-05T01:15:24;11.10;;;5.60;;
77602;SDS011;66771;52.434;17.056;2023-02-05T01:17:51;11.30;;;4.70;;
77602;SDS011;66771;52.434;17.056;2023-02-05T01:20:19;9.60;;;5.20;;
77602;SDS011;66771;52.434;17.056;2023-02-05T01:22:47;9.90;;;5.10;;
77602;SDS011;66771;52.434;17.056;2023-02-05T01:25:15;12.20;;;4.80;;
77602;SDS011;66771;52.434;17.056;2023-02-05T01:27:41;8.70;;;4.00;;
77602;SDS011;66771;52.434;17.056;2023-02-05T01:30:09;6.70;;;3.60;;
77602;SDS011;66771;52.434;17.056;2023-02-05T01:32:37;6.50;;;4.00;;
77602;SDS011;66771;52.434;17.056;2023-02-05T01:35:06;9.20;;;5.10;;
77602;SDS011;66771;52.434;17.056;2023-02-05T01:37:34;8.60;;;4.50;;
77602;SDS011;66771;52.434;17.056;2023-02-05T01:40:01;7.00;;;3.90;;
77602;SDS011;66771;52.434;17.056;2023-02-05T01:42:29;12.60;;;4.60;;
77602;SDS011;66771;52.434;17.056;2023-02-05T01:47:58;12.20;;;5.00;;
77602;SDS011;66771;52.434;17.056;2023-02-05T01:51:11;9.40;;;4.50;;
77602;SDS011;66771;52.434;17.056;2023-02-05T01:53:22;12.20;;;4.70;;
77602;SDS011;66771;52.434;17.056;2023-02-05T01:55:54;10.70;;;4.50;;
77602;SDS011;66771;52.434;17.056;2023-02-05T01:58:25;6.20;;;4.30;;
77602;SDS011;66771;52.434;17.056;2023-02-05T02:00:56;12.80;;;5.80;;
77602;SDS011;66771;52.434;17.056;2023-02-05T02:03:35;11.10;;;4.90;;
77602;SDS011;66771;52.434;17.056;2023-02-05T02:06:03;8.50;;;4.70;;
77602;SDS011;66771;52.434;17.056;2023-02-05T02:08:33;8.00;;;4.40;;
77602;SDS011;66771;52.434;17.056;2023-02-05T02:11:01;8.50;;;4.70;;
77602;SDS011;66771;52.434;17.056;2023-02-05T02:13:32;8.30;;;4.60;;
77602;SDS011;66771;52.434;17.056;2023-02-05T02:16:02;8.30;;;4.40;;
77602;SDS011;66771;52.434;17.056;2023-02-05T02:18:54;11.20;;;4.50;;
77602;SDS011;66771;52.434;17.056;2023-02-05T02:31:12;5.70;;;4.00;;
77602;SDS011;66771;52.434;17.056;2023-02-05T02:39:56;11.20;;;5.80;;
77602;SDS011;66771;52.434;17.056;2023-02-05T02:45:45;12.30;;;5.40;;
77602;SDS011;66771;52.434;17.056;2023-02-05T02:48:17;9.00;;;5.40;;
77602;SDS011;66771;52.434;17.056;2023-02-05T02:50:53;9.70;;;4.90;;
77602;SDS011;66771;52.434;17.056;2023-02-05T02:53:31;9.90;;;5.00;;
77602;SDS011;66771;52.434;17.056;2023-02-05T02:56:11;11.00;;;5.30;;
77602;SDS011;66771;52.434;17.056;2023-02-05T02:59:12;10.00;;;4.90;;
77602;SDS011;66771;52.434;17.056;2023-02-05T03:02:02;9.60;;;5.70;;
77602;SDS011;66771;52.434;17.056;2023-02-05T03:04:32;11.50;;;5.50;;
77602;SDS011;66771;52.434;17.056;2023-02-05T03:07:07;13.40;;;5.70;;
77602;SDS011;66771;52.434;17.056;2023-02-05T03:12:56;12.80;;;7.00;;
77602;SDS011;66771;52.434;17.056;2023-02-05T03:15:26;12.40;;;6.30;;
77602;SDS011;66771;52.434;17.056;2023-02-05T03:17:59;11.90;;;6.00;;
77602;SDS011;66771;52.434;17.056;2023-02-05T03:20:27;14.30;;;6.60;;
77602;SDS011;66771;52.434;17.056;2023-02-05T03:22:57;19.80;;;6.80;;
77602;SDS011;66771;52.434;17.056;2023-02-05T03:25:36;11.40;;;6.30;;
77602;SDS011;66771;52.434;17.056;2023-02-05T03:28:04;11.80;;;5.60;;
77602;SDS011;66771;52.434;17.056;2023-02-05T03:33:56;13.20;;;6.30;;
77602;SDS011;66771;52.434;17.056;2023-02-05T03:36:39;13.00;;;6.00;;
77602;SDS011;66771;52.434;17.056;2023-02-05T03:39:40;12.70;;;6.60;;
77602;SDS011;66771;52.434;17.056;2023-02-05T03:42:26;13.30;;;6.20;;
77602;SDS011;66771;52.434;17.056;2023-02-05T03:45:06;16.60;;;6.70;;
77602;SDS011;66771;52.434;17.056;2023-02-05T03:48:10;12.00;;;5.90;;
77602;SDS011;66771;52.434;17.056;2023-02-05T03:53:55;10.70;;;5.60;;
77602;SDS011;66771;52.434;17.056;2023-02-05T03:59:36;10.80;;;5.50;;
77602;SDS011;66771;52.434;17.056;2023-02-05T04:02:10;11.90;;;6.30;;
77602;SDS011;66771;52.434;17.056;2023-02-05T04:04:40;11.10;;;6.30;;
77602;SDS011;66771;52.434;17.056;2023-02-05T04:07:27;13.20;;;6.60;;
77602;SDS011;66771;52.434;17.056;2023-02-05T04:10:18;15.20;;;6.50;;
77602;SDS011;66771;52.434;17.056;2023-02-05T04:12:57;14.00;;;7.20;;
77602;SDS011;66771;52.434;17.056;2023-02-05T04:15:25;13.90;;;7.30;;
77602;SDS011;66771;52.434;17.056;2023-02-05T04:17:54;11.50;;;6.20;;
77602;SDS011;66771;52.434;17.056;2023-02-05T04:23:45;13.20;;;5.70;;
77602;SDS011;66771;52.434;17.056;2023-02-05T04:26:22;13.00;;;6.60;;
77602;SDS011;66771;52.434;17.056;2023-02-05T04:28:58;13.10;;;6.20;;
77602;SDS011;66771;52.434;17.056;2023-02-05T04:31:51;11.00;;;6.30;;
77602;SDS011;66771;52.434;17.056;2023-02-05T04:34:17;14.20;;;7.00;;
77602;SDS011;66771;52.434;17.056;2023-02-05T04:36:47;18.20;;;7.50;;
77602;SDS011;66771;52.434;17.056;2023-02-05T04:39:14;12.80;;;8.30;;
77602;SDS011;66771;52.434;17.056;2023-02-05T04:45:01;13.40;;;6.50;;
77602;SDS011;66771;52.434;17.056;2023-02-05T04:47:52;15.90;;;6.50;;
77602;SDS011;66771;52.434;17.056;2023-02-05T04:50:28;13.50;;;7.00;;
77602;SDS011;66771;52.434;17.056;2023-02-05T04:52:58;10.60;;;6.70;;
77602;SDS011;66771;52.434;17.056;2023-02-05T04:55:47;14.70;;;7.10;;
77602;SDS011;66771;52.434;17.056;2023-02-05T04:58:17;17.90;;;8.60;;
77602;SDS011;66771;52.434;17.056;2023-02-05T05:00:47;18.60;;;9.30;;
77602;SDS011;66771;52.434;17.056;2023-02-05T05:03:30;22.10;;;10.80;;
77602;SDS011;66771;52.434;17.056;2023-02-05T05:06:02;27.20;;;12.70;;
77602;SDS011;66771;52.434;17.056;2023-02-05T05:08:38;23.90;;;12.40;;
77602;SDS011;66771;52.434;17.056;2023-02-05T05:11:15;21.30;;;10.40;;
77602;SDS011;66771;52.434;17.056;2023-02-05T05:16:36;21.60;;;10.90;;
77602;SDS011;66771;52.434;17.056;2023-02-05T05:22:02;18.80;;;9.80;;
77602;SDS011;66771;52.434;17.056;2023-02-05T05:24:32;19.60;;;10.00;;
77602;SDS011;66771;52.434;17.056;2023-02-05T05:27:09;20.90;;;11.30;;
77602;SDS011;66771;52.434;17.056;2023-02-05T05:29:36;25.20;;;11.40;;
77602;SDS011;66771;52.434;17.056;2023-02-05T05:32:23;22.40;;;13.70;;
77602;SDS011;66771;52.434;17.056;2023-02-05T05:35:11;25.60;;;14.10;;
77602;SDS011;66771;52.434;17.056;2023-02-05T05:37:40;22.90;;;13.40;;
77602;SDS011;66771;52.434;17.056;2023-02-05T05:40:16;22.90;;;13.70;;
77602;SDS011;66771;52.434;17.056;2023-02-05T05:43:04;22.20;;;13.20;;
77602;SDS011;66771;52.434;17.056;2023-02-05T05:45:50;23.40;;;12.30;;
77602;SDS011;66771;52.434;17.056;2023-02-05T05:48:21;25.10;;;12.70;;
77602;SDS011;66771;52.434;17.056;2023-02-05T05:50:50;24.80;;;12.50;;
77602;SDS011;66771;52.434;17.056;2023-02-05T05:53:20;21.80;;;11.40;;
77602;SDS011;66771;52.434;17.056;2023-02-05T05:55:48;26.60;;;12.50;;
77602;SDS011;66771;52.434;17.056;2023-02-05T05:58:35;27.70;;;12.70;;
77602;SDS011;66771;52.434;17.056;2023-02-05T06:01:04;22.70;;;12.10;;
77602;SDS011;66771;52.434;17.056;2023-02-05T06:03:52;17.70;;;9.20;;
77602;SDS011;66771;52.434;17.056;2023-02-05T06:06:30;16.80;;;8.40;;
77602;SDS011;66771;52.434;17.056;2023-02-05T06:09:09;22.10;;;10.40;;
77602;SDS011;66771;52.434;17.056;2023-02-05T06:11:39;17.80;;;9.20;;
77602;SDS011;66771;52.434;17.056;2023-02-05T06:14:19;20.00;;;9.80;;
77602;SDS011;66771;52.434;17.056;2023-02-05T06:17:10;18.90;;;10.40;;
77602;SDS011;66771;52.434;17.056;2023-02-05T06:19:48;16.20;;;9.40;;
77602;SDS011;66771;52.434;17.056;2023-02-05T06:22:18;23.40;;;11.00;;
77602;SDS011;66771;52.434;17.056;2023-02-05T06:27:37;24.50;;;13.50;;
77602;SDS011;66771;52.434;17.056;2023-02-05T06:30:16;26.90;;;13.90;;
77602;SDS011;66771;52.434;17.056;2023-02-05T06:32:51;35.50;;;15.90;;
77602;SDS011;66771;52.434;17.056;2023-02-05T06:35:24;27.80;;;13.90;;
77602;SDS011;66771;52.434;17.056;2023-02-05T06:37:54;25.10;;;13.00;;
77602;SDS011;66771;52.434;17.056;2023-02-05T06:40:21;27.20;;;13.80;;
77602;SDS011;66771;52.434;17.056;2023-02-05T06:43:01;32.80;;;15.80;;
77602;SDS011;66771;52.434;17.056;2023-02-05T06:45:48;24.90;;;13.20;;
77602;SDS011;66771;52.434;17.056;2023-02-05T06:48:24;26.60;;;13.30;;
77602;SDS011;66771;52.434;17.056;2023-02-05T06:50:51;27.10;;;13.80;;
77602;SDS011;66771;52.434;17.056;2023-02-05T06:53:21;27.80;;;15.00;;
77602;SDS011;66771;52.434;17.056;2023-02-05T06:55:49;31.30;;;17.10;;
77602;SDS011;66771;52.434;17.056;2023-02-05T06:58:19;33.70;;;15.80;;
77602;SDS011;66771;52.434;17.056;2023-02-05T07:03:33;33.30;;;16.10;;
77602;SDS011;66771;52.434;17.056;2023-02-05T07:06:03;29.70;;;14.00;;
77602;SDS011;66771;52.434;17.056;2023-02-05T07:08:40;24.00;;;13.00;;
77602;SDS011;66771;52.434;17.056;2023-02-05T07:11:16;24.80;;;13.60;;
77602;SDS011;66771;52.434;17.056;2023-02-05T07:13:47;24.30;;;13.30;;
77602;SDS011;66771;52.434;17.056;2023-02-05T07:16:14;24.30;;;13.10;;
77602;SDS011;66771;52.434;17.056;2023-02-05T07:18:44;22.90;;;13.00;;
77602;SDS011;66771;52.434;17.056;2023-02-05T07:21:13;36.20;;;16.10;;
77602;SDS011;66771;52.434;17.056;2023-02-05T07:23:42;27.50;;;14.70;;
77602;SDS011;66771;52.434;17.056;2023-02-05T07:26:10;27.30;;;14.90;;
77602;SDS011;66771;52.434;17.056;2023-02-05T07:28:48;25.70;;;13.30;;
77602;SDS011;66771;52.434;17.056;2023-02-05T07:31:21;23.30;;;11.30;;
77602;SDS011;66771;52.434;17.056;2023-02-05T07:33:48;22.90;;;11.50;;
77602;SDS011;66771;52.434;17.056;2023-02-05T07:36:15;22.30;;;12.20;;
77602;SDS011;66771;52.434;17.056;2023-02-05T07:38:44;28.20;;;14.30;;
77602;SDS011;66771;52.434;17.056;2023-02-05T07:41:13;25.70;;;12.70;;
77602;SDS011;66771;52.434;17.056;2023-02-05T07:43:44;22.70;;;12.30;;
77602;SDS011;66771;52.434;17.056;2023-02-05T07:46:14;28.30;;;13.20;;
77602;SDS011;66771;52.434;17.056;2023-02-05T07:48:41;23.60;;;12.00;;
77602;SDS011;66771;52.434;17.056;2023-02-05T07:51:11;21.10;;;11.20;;
77602;SDS011;66771;52.434;17.056;2023-02-05T07:53:53;17.90;;;9.30;;
77602;SDS011;66771;52.434;17.056;2023-02-05T07:56:19;19.40;;;10.60;;
77602;SDS011;66771;52.434;17.056;2023-02-05T07:58:51;18.60;;;10.30;;
77602;SDS011;66771;52.434;17.056;2023-02-05T08:01:27;21.40;;;10.40;;
77602;SDS011;66771;52.434;17.056;2023-02-05T08:04:02;19.80;;;11.40;;
77602;SDS011;66771;52.434;17.056;2023-02-05T08:06:30;22.90;;;11.80;;
77602;SDS011;66771;52.434;17.056;2023-02-05T08:09:01;23.40;;;11.00;;
77602;SDS011;66771;52.434;17.056;2023-02-05T08:11:28;20.20;;;9.90;;
77602;SDS011;66771;52.434;17.056;2023-02-05T08:13:55;16.10;;;8.90;;
77602;SDS011;66771;52.434;17.056;2023-02-05T08:16:22;20.70;;;11.70;;
77602;SDS011;66771;52.434;17.056;2023-02-05T08:18:49;22.20;;;12.00;;
77602;SDS011;66771;52.434;17.056;2023-02-05T08:21:18;20.60;;;10.90;;
77602;SDS011;66771;52.434;17.056;2023-02-05T08:24:07;16.30;;;9.40;;
77602;SDS011;66771;52.434;17.056;2023-02-05T08:26:40;18.20;;;9.90;;
77602;SDS011;66771;52.434;17.056;2023-02-05T08:29:10;20.10;;;12.10;;
77602;SDS011;66771;52.434;17.056;2023-02-05T08:31:37;27.00;;;12.90;;
77602;SDS011;66771;52.434;17.056;2023-02-05T08:34:04;20.10;;;12.20;;
77602;SDS011;66771;52.434;17.056;2023-02-05T08:36:31;16.70;;;10.80;;
77602;SDS011;66771;52.434;17.056;2023-02-05T08:39:01;19.60;;;11.50;;
77602;SDS011;66771;52.434;17.056;2023-02-05T08:41:28;18.70;;;10.70;;
77602;SDS011;66771;52.434;17.056;2023-02-05T08:43:55;15.50;;;9.80;;
77602;SDS011;66771;52.434;17.056;2023-02-05T08:46:25;18.80;;;10.90;;
77602;SDS011;66771;52.434;17.056;2023-02-05T08:49:02;24.90;;;13.20;;
77602;SDS011;66771;52.434;17.056;2023-02-05T08:51:29;16.80;;;10.90;;
77602;SDS011;66771;52.434;17.056;2023-02-05T08:54:04;19.90;;;10.00;;
77602;SDS011;66771;52.434;17.056;2023-02-05T08:56:52;15.40;;;8.10;;
77602;SDS011;66771;52.434;17.056;2023-02-05T08:59:19;16.90;;;9.00;;
77602;SDS011;66771;52.434;17.056;2023-02-05T09:01:49;12.60;;;7.90;;
77602;SDS011;66771;52.434;17.056;2023-02-05T09:04:20;14.40;;;8.30;;
77602;SDS011;66771;52.434;17.056;2023-02-05T09:06:48;19.50;;;8.30;;
77602;SDS011;66771;52.434;17.056;2023-02-05T09:09:27;12.10;;;7.40;;
77602;SDS011;66771;52.434;17.056;2023-02-05T09:11:55;15.70;;;8.00;;
77602;SDS011;66771;52.434;17.056;2023-02-05T09:14:24;12.50;;;8.10;;
77602;SDS011;66771;52.434;17.056;2023-02-05T09:16:54;9.70;;;6.40;;
77602;SDS011;66771;52.434;17.056;2023-02-05T09:19:32;12.30;;;7.40;;
77602;SDS011;66771;52.434;17.056;2023-02-05T09:22:06;16.00;;;7.80;;
77602;SDS011;66771;52.434;17.056;2023-02-05T09:24:36;12.70;;;8.40;;
77602;SDS011;66771;52.434;17.056;2023-02-05T09:27:03;14.20;;;8.00;;
77602;SDS011;66771;52.434;17.056;2023-02-05T09:29:31;13.80;;;7.30;;
77602;SDS011;66771;52.434;17.056;2023-02-05T09:31:58;13.90;;;8.30;;
77602;SDS011;66771;52.434;17.056;2023-02-05T09:34:25;10.80;;;7.60;;
77602;SDS011;66771;52.434;17.056;2023-02-05T09:36:56;13.40;;;7.40;;
77602;SDS011;66771;52.434;17.056;2023-02-05T09:39:23;14.10;;;9.20;;
77602;SDS011;66771;52.434;17.056;2023-02-05T09:48:01;13.00;;;8.10;;
77602;SDS011;66771;52.434;17.056;2023-02-05T09:50:40;12.80;;;8.10;;
77602;SDS011;66771;52.434;17.056;2023-02-05T09:53:10;13.40;;;7.90;;
77602;SDS011;66771;52.434;17.056;2023-02-05T09:55:42;14.60;;;7.80;;
77602;SDS011;66771;52.434;17.056;2023-02-05T09:58:38;14.40;;;8.50;;
77602;SDS011;66771;52.434;17.056;2023-02-05T10:01:11;14.30;;;8.50;;
77602;SDS011;66771;52.434;17.056;2023-02-05T10:04:00;12.10;;;8.10;;
77602;SDS011;66771;52.434;17.056;2023-02-05T10:18:25;13.50;;;8.90;;
77602;SDS011;66771;52.434;17.056;2023-02-05T10:28:07;15.00;;;9.70;;
77602;SDS011;66771;52.434;17.056;2023-02-05T10:37:38;19.70;;;11.90;;
77602;SDS011;66771;52.434;17.056;2023-02-05T10:40:33;16.60;;;10.20;;
77602;SDS011;66771;52.434;17.056;2023-02-05T10:43:52;17.00;;;10.70;;
77602;SDS011;66771;52.434;17.056;2023-02-05T10:46:59;18.90;;;10.30;;
77602;SDS011;66771;52.434;17.056;2023-02-05T10:50:03;18.20;;;9.90;;
77602;SDS011;66771;52.434;17.056;2023-02-05T10:53:25;16.20;;;9.70;;
77602;SDS011;66771;52.434;17.056;2023-02-05T10:59:43;15.40;;;9.70;;
77602;SDS011;66771;52.434;17.056;2023-02-05T11:35:15;10.90;;;6.20;;
77602;SDS011;66771;52.434;17.056;2023-02-05T11:42:55;9.90;;;5.40;;
77602;SDS011;66771;52.434;17.056;2023-02-05T11:53:14;10.90;;;6.90;;
77602;SDS011;66771;52.434;17.056;2023-02-05T11:56:34;12.50;;;8.00;;
77602;SDS011;66771;52.434;17.056;2023-02-05T12:10:21;14.20;;;7.80;;
77602;SDS011;66771;52.434;17.056;2023-02-05T13:19:05;7.40;;;4.70;;
77602;SDS011;66771;52.434;17.056;2023-02-05T13:30:19;5.40;;;3.60;;
77602;SDS011;66771;52.434;17.056;2023-02-05T13:33:59;7.50;;;3.40;;
77602;SDS011;66771;52.434;17.056;2023-02-05T15:21:16;8.20;;;4.90;;
77602;SDS011;66771;52.434;17.056;2023-02-05T15:41:49;19.40;;;8.60;;
77602;SDS011;66771;52.434;17.056;2023-02-05T15:44:49;12.80;;;7.20;;
77602;SDS011;66771;52.434;17.056;2023-02-05T15:47:45;16.00;;;7.70;;
77602;SDS011;66771;52.434;17.056;2023-02-05T15:53:53;11.70;;;6.50;;
77602;SDS011;66771;52.434;17.056;2023-02-05T15:57:02;10.20;;;6.10;;
77602;SDS011;66771;52.434;17.056;2023-02-05T16:00:06;10.60;;;6.10;;
77602;SDS011;66771;52.434;17.056;2023-02-05T16:06:46;11.50;;;6.10;;
77602;SDS011;66771;52.434;17.056;2023-02-05T16:13:16;13.90;;;8.10;;
77602;SDS011;66771;52.434;17.056;2023-02-05T16:18:15;16.90;;;7.90;;
77602;SDS011;66771;52.434;17.056;2023-02-05T16:20:50;14.60;;;8.20;;
77602;SDS011;66771;52.434;17.056;2023-02-05T16:23:31;18.60;;;7.80;;
77602;SDS011;66771;52.434;17.056;2023-02-05T16:26:10;13.70;;;7.50;;
77602;SDS011;66771;52.434;17.056;2023-02-05T16:31:07;11.00;;;7.50;;
77602;SDS011;66771;52.434;17.056;2023-02-05T16:34:02;13.00;;;7.60;;
77602;SDS011;66771;52.434;17.056;2023-02-05T16:36:50;13.20;;;8.30;;
77602;SDS011;66771;52.434;17.056;2023-02-05T16:39:26;16.40;;;8.90;;
77602;SDS011;66771;52.434;17.056;2023-02-05T16:45:21;18.90;;;9.50;;
77602;SDS011;66771;52.434;17.056;2023-02-05T16:48:29;19.80;;;10.10;;
77602;SDS011;66771;52.434;17.056;2023-02-05T16:51:10;23.60;;;11.70;;
77602;SDS011;66771;52.434;17.056;2023-02-05T16:59:32;20.60;;;11.40;;
77602;SDS011;66771;52.434;17.056;2023-02-05T17:02:26;21.70;;;11.00;;
77602;SDS011;66771;52.434;17.056;2023-02-05T17:08:05;23.50;;;12.70;;
77602;SDS011;66771;52.434;17.056;2023-02-05T17:13:39;29.30;;;14.10;;
77602;SDS011;66771;52.434;17.056;2023-02-05T17:16:29;40.50;;;16.70;;
77602;SDS011;66771;52.434;17.056;2023-02-05T17:19:01;31.50;;;14.00;;
77602;SDS011;66771;52.434;17.056;2023-02-05T17:21:34;27.00;;;13.80;;
77602;SDS011;66771;52.434;17.056;2023-02-05T17:24:02;27.30;;;13.70;;
77602;SDS011;66771;52.434;17.056;2023-02-05T17:26:37;36.40;;;17.30;;
77602;SDS011;66771;52.434;17.056;2023-02-05T17:29:13;40.00;;;20.10;;
77602;SDS011;66771;52.434;17.056;2023-02-05T17:31:48;61.60;;;29.60;;
77602;SDS011;66771;52.434;17.056;2023-02-05T17:34:18;80.70;;;37.70;;
77602;SDS011;66771;52.434;17.056;2023-02-05T17:39:24;151.80;;;65.50;;
77602;SDS011;66771;52.434;17.056;2023-02-05T17:41:51;138.90;;;59.40;;
77602;SDS011;66771;52.434;17.056;2023-02-05T17:44:30;156.50;;;65.60;;
77602;SDS011;66771;52.434;17.056;2023-02-05T17:47:02;118.90;;;52.50;;
77602;SDS011;66771;52.434;17.056;2023-02-05T17:49:33;125.20;;;54.50;;
77602;SDS011;66771;52.434;17.056;2023-02-05T17:52:17;130.80;;;58.20;;
77602;SDS011;66771;52.434;17.056;2023-02-05T17:54:47;152.20;;;65.60;;
77602;SDS011;66771;52.434;17.056;2023-02-05T17:57:15;137.70;;;64.80;;
77602;SDS011;66771;52.434;17.056;2023-02-05T18:00:05;151.40;;;68.20;;
77602;SDS011;66771;52.434;17.056;2023-02-05T18:02:41;153.70;;;68.40;;
77602;SDS011;66771;52.434;17.056;2023-02-05T18:05:08;153.00;;;69.40;;
77602;SDS011;66771;52.434;17.056;2023-02-05T18:07:38;170.00;;;75.00;;
77602;SDS011;66771;52.434;17.056;2023-02-05T18:10:12;192.20;;;85.50;;
77602;SDS011;66771;52.434;17.056;2023-02-05T18:12:44;179.80;;;79.00;;
77602;SDS011;66771;52.434;17.056;2023-02-05T18:15:20;159.50;;;73.90;;
77602;SDS011;66771;52.434;17.056;2023-02-05T18:17:48;156.00;;;73.00;;
77602;SDS011;66771;52.434;17.056;2023-02-05T18:20:21;160.10;;;72.60;;
77602;SDS011;66771;52.434;17.056;2023-02-05T18:22:48;163.70;;;73.00;;
77602;SDS011;66771;52.434;17.056;2023-02-05T18:25:16;161.60;;;69.40;;
77602;SDS011;66771;52.434;17.056;2023-02-05T18:27:46;161.60;;;73.00;;
77602;SDS011;66771;52.434;17.056;2023-02-05T18:30:14;161.90;;;70.50;;
77602;SDS011;66771;52.434;17.056;2023-02-05T18:32:41;154.90;;;68.50;;
77602;SDS011;66771;52.434;17.056;2023-02-05T18:35:17;145.90;;;68.90;;
77602;SDS011;66771;52.434;17.056;2023-02-05T18:37:47;149.20;;;68.80;;
77602;SDS011;66771;52.434;17.056;2023-02-05T18:40:14;150.60;;;67.90;;
77602;SDS011;66771;52.434;17.056;2023-02-05T18:42:43;142.20;;;67.30;;
77602;SDS011;66771;52.434;17.056;2023-02-05T18:45:30;149.70;;;71.40;;
77602;SDS011;66771;52.434;17.056;2023-02-05T18:47:57;146.70;;;65.80;;
77602;SDS011;66771;52.434;17.056;2023-02-05T18:50:26;131.90;;;61.80;;
77602;SDS011;66771;52.434;17.056;2023-02-05T18:52:58;121.20;;;56.80;;
77602;SDS011;66771;52.434;17.056;2023-02-05T18:55:28;124.30;;;60.10;;
77602;SDS011;66771;52.434;17.056;2023-02-05T18:58:01;129.80;;;57.40;;
77602;SDS011;66771;52.434;17.056;2023-02-05T19:00:29;122.00;;;55.40;;
77602;SDS011;66771;52.434;17.056;2023-02-05T19:02:57;122.20;;;55.40;;
77602;SDS011;66771;52.434;17.056;2023-02-05T19:05:24;115.20;;;50.50;;
77602;SDS011;66771;52.434;17.056;2023-02-05T19:07:52;118.80;;;51.60;;
77602;SDS011;66771;52.434;17.056;2023-02-05T19:10:19;100.40;;;45.40;;
77602;SDS011;66771;52.434;17.056;2023-02-05T19:12:46;100.00;;;45.70;;
77602;SDS011;66771;52.434;17.056;2023-02-05T19:15:13;101.90;;;46.10;;
77602;SDS011;66771;52.434;17.056;2023-02-05T19:17:40;105.10;;;47.40;;
77602;SDS011;66771;52.434;17.056;2023-02-05T19:20:07;110.20;;;47.50;;
77602;SDS011;66771;52.434;17.056;2023-02-05T19:22:38;102.40;;;46.70;;
77602;SDS011;66771;52.434;17.056;2023-02-05T19:25:16;111.80;;;48.20;;
77602;SDS011;66771;52.434;17.056;2023-02-05T19:27:49;111.70;;;49.00;;
77602;SDS011;66771;52.434;17.056;2023-02-05T19:30:19;102.20;;;47.10;;
77602;SDS011;66771;52.434;17.056;2023-02-05T19:32:46;103.20;;;48.60;;
77602;SDS011;66771;52.434;17.056;2023-02-05T19:35:13;107.50;;;49.80;;
77602;SDS011;66771;52.434;17.056;2023-02-05T19:37:49;107.60;;;50.40;;
77602;SDS011;66771;52.434;17.056;2023-02-05T19:40:17;101.50;;;47.40;;
77602;SDS011;66771;52.434;17.056;2023-02-05T19:42:44;105.20;;;49.60;;
77602;SDS011;66771;52.434;17.056;2023-02-05T19:45:14;117.70;;;51.40;;
77602;SDS011;66771;52.434;17.056;2023-02-05T19:47:41;105.90;;;48.20;;
77602;SDS011;66771;52.434;17.056;2023-02-05T19:50:09;109.60;;;50.80;;
77602;SDS011;66771;52.434;17.056;2023-02-05T19:52:35;109.60;;;48.30;;
77602;SDS011;66771;52.434;17.056;2023-02-05T19:55:02;101.00;;;46.40;;
77602;SDS011;66771;52.434;17.056;2023-02-05T19:57:51;85.10;;;41.30;;
77602;SDS011;66771;52.434;17.056;2023-02-05T20:00:20;89.50;;;41.70;;
77602;SDS011;66771;52.434;17.056;2023-02-05T20:02:55;98.60;;;43.10;;
77602;SDS011;66771;52.434;17.056;2023-02-05T20:05:22;102.20;;;45.40;;
77602;SDS011;66771;52.434;17.056;2023-02-05T20:07:53;118.20;;;50.90;;
77602;SDS011;66771;52.434;17.056;2023-02-05T20:10:29;109.30;;;48.90;;
77602;SDS011;66771;52.434;17.056;2023-02-05T20:12:56;116.50;;;48.60;;
77602;SDS011;66771;52.434;17.056;2023-02-05T20:15:23;121.50;;;54.70;;
77602;SDS011;66771;52.434;17.056;2023-02-05T20:17:50;131.10;;;56.00;;
77602;SDS011;66771;52.434;17.056;2023-02-05T20:20:17;114.00;;;49.70;;
77602;SDS011;66771;52.434;17.056;2023-02-05T20:22:47;127.10;;;54.00;;
77602;SDS011;66771;52.434;17.056;2023-02-05T20:25:16;149.70;;;64.80;;
77602;SDS011;66771;52.434;17.056;2023-02-05T20:27:43;133.90;;;57.90;;
77602;SDS011;66771;52.434;17.056;2023-02-05T20:30:23;121.20;;;55.50;;
77602;SDS011;66771;52.434;17.056;2023-02-05T20:33:15;138.10;;;58.30;;
77602;SDS011;66771;52.434;17.056;2023-02-05T20:35:41;151.70;;;63.60;;
77602;SDS011;66771;52.434;17.056;2023-02-05T20:38:17;146.30;;;62.40;;
77602;SDS011;66771;52.434;17.056;2023-02-05T20:40:45;139.50;;;61.50;;
77602;SDS011;66771;52.434;17.056;2023-02-05T20:43:11;133.60;;;58.50;;
77602;SDS011;66771;52.434;17.056;2023-02-05T20:45:38;128.00;;;57.70;;
77602;SDS011;66771;52.434;17.056;2023-02-05T20:48:26;121.50;;;56.40;;
77602;SDS011;66771;52.434;17.056;2023-02-05T20:50:54;121.90;;;56.20;;
77602;SDS011;66771;52.434;17.056;2023-02-05T20:53:29;153.90;;;69.50;;
77602;SDS011;66771;52.434;17.056;2023-02-05T20:55:59;160.00;;;68.60;;
77602;SDS011;66771;52.434;17.056;2023-02-05T20:58:30;147.70;;;68.60;;
77602;SDS011;66771;52.434;17.056;2023-02-05T21:01:07;162.40;;;74.20;;
77602;SDS011;66771;52.434;17.056;2023-02-05T21:03:41;163.00;;;74.90;;
77602;SDS011;66771;52.434;17.056;2023-02-05T21:06:19;177.70;;;76.20;;
77602;SDS011;66771;52.434;17.056;2023-02-05T21:09:33;159.60;;;73.80;;
77602;SDS011;66771;52.434;17.056;2023-02-05T21:11:58;188.40;;;82.60;;